LFOBLFOP

Guest
Details From LFOB - Beauvais-Tille
To LFOP - Rouen Vallee de la Seine
Flight Number -
Tags generated
Created
Modified
Stats Distance 37 nm / 69 km
Max Altitude 3,700 ft / 1,128 m
Waypoints 3
Social Downloads 1
Likes 0
Share VATSIM

Download

Looking for another format? Having issues loading an existing format? Contact us
Advertisement - Login to hide

Notes

Basic altitude profile: - Ascent Rate: 2500ft/min - Ascent Speed: 250kts - Cruise Altitude: 5000ft - Cruise Speed: 350kts - Descent Rate: 1500ft/min - Descent Speed: 200kts Options: - Use NATs: yes - Use PACOTS: yes - Use low airways: yes - Use high airways: yes

Route

LFOB MOKNO LFOP

ID Type Via Altitude Latitude Longitude Leg Dist Tot Dist Heading (true) Name
O LFOB APT - 0 ft / 0 m 49.45600˚ 2.11891˚ - 0 nm - Beauvais-Tille
MOKNO FIX - 3,700 ft / 1,128 m 49.44111˚ 1.61889˚ 19 nm 19 nm 268° / 267° -
O LFOP APT - 0 ft / 0 m 49.38521˚ 1.17619˚ 17 nm 37 nm 259° / 259° Rouen Vallee de la Seine

Altitude Profile

Advertisement - Login to hide

LFOB

Details ICAO LFOB (BVA)
Name Beauvais-Tille
Region France
Timezone Europe/Paris (UTC+2.0)
Stats Elevation 358 ft / 109 m (AMSL)
Location 49.456000° 2.118914°
Runways 2
Magnetic Variation 0.534° E

METAR

LFOB 220200Z AUTO 29002KT 5000 BR NSC 11/10 Q1012 NOSIG

Decode

TAF

TAF LFOB 212300Z 2200/2224 33006KT CAVOK TEMPO 2203/2206 4000 BR TEMPO 2212/2222 3000 SHRA BKN030CB PROB30 TEMPO 2212/2222 VRB15G25KT TSRAGR

Decode

Departure Runways

ID Width Length Bearing (true) Bearing (mag) Surface Threshold Offset Overrun Length
04 82 ft / 25 m 2,321 ft / 707 m 41.41° 40.88° Asphalt 0 ft / 0 m 0 ft / 0 m
12 148 ft / 45 m 7,954 ft / 2,424 m 123.73° 123.20° Asphalt 148 ft / 45 m 0 ft / 0 m
22 82 ft / 25 m 2,321 ft / 707 m 221.41° 220.88° Asphalt 0 ft / 0 m 0 ft / 0 m
30 148 ft / 45 m 7,954 ft / 2,424 m 303.75° 303.22° Asphalt 0 ft / 0 m 0 ft / 0 m

LFOP

Details ICAO LFOP (URO)
Name Rouen Vallee de la Seine
Region France
Timezone Europe/Paris (UTC+2.0)
Stats Elevation 512 ft / 156 m (AMSL)
Location 49.385211° 1.176192°
Runways 1
Magnetic Variation 0.243° E

METAR

LFOP 220200Z AUTO 34004KT 9000 NSC 13/10 Q1012

Decode

TAF

TAF LFOP 212000Z 2120/2218 CNL

Decode

Destination Runways

ID Width Length Bearing (true) Bearing (mag) Surface Threshold Offset Overrun Length
04 148 ft / 45 m 5,577 ft / 1,700 m 41.28° 41.04° Asphalt 0 ft / 0 m 0 ft / 0 m
22 148 ft / 45 m 5,577 ft / 1,700 m 221.29° 221.05° Asphalt 0 ft / 0 m 0 ft / 0 m

Approach Navaids

Runway Type Ident Frequency Range Bearing (true) Bearing (mag) Slope Elevation
22 Localiser RN 110.50 MHz 18 nm / 33 km 221.27° 221.03° - 512 ft / 156 m (AMSL)
22 Glidescope RN 110.50 MHz 10 nm / 19 km 221.28° 221.04° 3.00° 512 ft / 156 m (AMSL)
22 DME RN 110.50 MHz 18 nm / 33 km - - - 571 ft / 174 m (AMSL)

Popular Alternatives